sensor_id;sensor_type;location;lat;lon;timestamp;P1;durP1;ratioP1;P2;durP2;ratioP2
9506;SDS011;4791;47.528;9.372;2023-02-15T00:00:47;21.77;;;19.47;;
9506;SDS011;4791;47.528;9.372;2023-02-15T00:15:50;20.50;;;18.40;;
9506;SDS011;4791;47.528;9.372;2023-02-15T00:30:50;20.15;;;18.08;;
9506;SDS011;4791;47.528;9.372;2023-02-15T00:45:50;21.13;;;18.95;;
9506;SDS011;4791;47.528;9.372;2023-02-15T01:01:01;21.40;;;19.20;;
9506;SDS011;4791;47.528;9.372;2023-02-15T01:16:06;21.87;;;19.47;;
9506;SDS011;4791;47.528;9.372;2023-02-15T01:31:08;20.05;;;17.98;;
9506;SDS011;4791;47.528;9.372;2023-02-15T01:46:13;19.85;;;17.85;;
9506;SDS011;4791;47.528;9.372;2023-02-15T02:01:17;19.77;;;17.77;;
9506;SDS011;4791;47.528;9.372;2023-02-15T02:31:44;18.17;;;16.07;;
9506;SDS011;4791;47.528;9.372;2023-02-15T02:47:13;16.40;;;14.60;;
9506;SDS011;4791;47.528;9.372;2023-02-15T03:02:21;16.67;;;14.97;;
9506;SDS011;4791;47.528;9.372;2023-02-15T03:17:26;15.17;;;13.67;;
9506;SDS011;4791;47.528;9.372;2023-02-15T03:32:28;14.13;;;12.63;;
9506;SDS011;4791;47.528;9.372;2023-02-15T03:47:31;14.23;;;12.83;;
9506;SDS011;4791;47.528;9.372;2023-02-15T04:02:40;14.33;;;12.87;;
9506;SDS011;4791;47.528;9.372;2023-02-15T04:17:47;14.83;;;13.43;;
9506;SDS011;4791;47.528;9.372;2023-02-15T04:32:48;14.27;;;12.87;;
9506;SDS011;4791;47.528;9.372;2023-02-15T04:47:51;13.85;;;12.45;;
9506;SDS011;4791;47.528;9.372;2023-02-15T05:02:53;13.47;;;12.07;;
9506;SDS011;4791;47.528;9.372;2023-02-15T05:17:54;13.83;;;12.33;;
9506;SDS011;4791;47.528;9.372;2023-02-15T05:32:57;14.00;;;12.60;;
9506;SDS011;4791;47.528;9.372;2023-02-15T05:47:57;13.90;;;12.50;;
9506;SDS011;4791;47.528;9.372;2023-02-15T06:02:58;13.35;;;9.20;;
9506;SDS011;4791;47.528;9.372;2023-02-15T06:17:58;13.98;;;10.05;;
9506;SDS011;4791;47.528;9.372;2023-02-15T06:33:02;16.13;;;11.35;;
9506;SDS011;4791;47.528;9.372;2023-02-15T06:48:04;14.75;;;9.40;;
9506;SDS011;4791;47.528;9.372;2023-02-15T07:03:08;13.23;;;9.98;;
9506;SDS011;4791;47.528;9.372;2023-02-15T07:18:15;14.25;;;10.50;;
9506;SDS011;4791;47.528;9.372;2023-02-15T07:33:15;13.52;;;9.70;;
9506;SDS011;4791;47.528;9.372;2023-02-15T07:48:26;12.77;;;8.98;;
9506;SDS011;4791;47.528;9.372;2023-02-15T08:03:29;11.95;;;9.60;;
9506;SDS011;4791;47.528;9.372;2023-02-15T08:18:32;13.48;;;9.80;;
9506;SDS011;4791;47.528;9.372;2023-02-15T08:33:34;11.90;;;9.50;;
9506;SDS011;4791;47.528;9.372;2023-02-15T08:48:38;11.10;;;8.32;;
9506;SDS011;4791;47.528;9.372;2023-02-15T09:03:39;10.68;;;8.82;;
9506;SDS011;4791;47.528;9.372;2023-02-15T09:18:42;12.10;;;9.23;;
9506;SDS011;4791;47.528;9.372;2023-02-15T09:33:45;12.70;;;9.48;;
9506;SDS011;4791;47.528;9.372;2023-02-15T09:48:52;12.88;;;8.77;;
9506;SDS011;4791;47.528;9.372;2023-02-15T10:34:31;14.65;;;9.30;;
9506;SDS011;4791;47.528;9.372;2023-02-15T11:20:42;13.80;;;10.55;;
9506;SDS011;4791;47.528;9.372;2023-02-15T11:35:53;13.40;;;9.90;;
9506;SDS011;4791;47.528;9.372;2023-02-15T11:51:01;15.73;;;9.88;;
9506;SDS011;4791;47.528;9.372;2023-02-15T12:06:03;11.83;;;9.20;;
9506;SDS011;4791;47.528;9.372;2023-02-15T12:21:07;13.65;;;9.93;;
9506;SDS011;4791;47.528;9.372;2023-02-15T12:51:24;12.98;;;9.27;;
9506;SDS011;4791;47.528;9.372;2023-02-15T13:06:27;12.27;;;8.98;;
9506;SDS011;4791;47.528;9.372;2023-02-15T13:21:33;12.68;;;10.10;;
9506;SDS011;4791;47.528;9.372;2023-02-15T13:52:01;14.25;;;9.77;;
9506;SDS011;4791;47.528;9.372;2023-02-15T14:37:32;17.27;;;11.70;;
9506;SDS011;4791;47.528;9.372;2023-02-15T15:08:22;15.50;;;12.25;;
9506;SDS011;4791;47.528;9.372;2023-02-15T15:23:38;15.63;;;11.88;;
9506;SDS011;4791;47.528;9.372;2023-02-15T15:38:51;17.95;;;12.55;;
9506;SDS011;4791;47.528;9.372;2023-02-15T15:54:21;17.88;;;13.52;;
9506;SDS011;4791;47.528;9.372;2023-02-15T16:09:24;17.25;;;12.45;;
9506;SDS011;4791;47.528;9.372;2023-02-15T16:39:45;17.65;;;13.52;;
9506;SDS011;4791;47.528;9.372;2023-02-15T16:54:56;17.05;;;12.52;;
9506;SDS011;4791;47.528;9.372;2023-02-15T17:09:58;16.52;;;12.48;;
9506;SDS011;4791;47.528;9.372;2023-02-15T17:25:00;12.30;;;9.52;;
9506;SDS011;4791;47.528;9.372;2023-02-15T17:55:22;12.27;;;9.98;;
9506;SDS011;4791;47.528;9.372;2023-02-15T18:10:37;13.10;;;9.15;;
9506;SDS011;4791;47.528;9.372;2023-02-15T18:25:55;11.23;;;9.25;;
9506;SDS011;4791;47.528;9.372;2023-02-15T18:40:56;9.65;;;8.48;;
9506;SDS011;4791;47.528;9.372;2023-02-15T18:55:57;12.90;;;9.52;;
9506;SDS011;4791;47.528;9.372;2023-02-15T19:10:57;15.32;;;11.85;;
9506;SDS011;4791;47.528;9.372;2023-02-15T19:26:00;12.20;;;9.65;;
9506;SDS011;4791;47.528;9.372;2023-02-15T19:41:05;12.43;;;10.23;;
9506;SDS011;4791;47.528;9.372;2023-02-15T19:56:13;11.93;;;8.73;;
9506;SDS011;4791;47.528;9.372;2023-02-15T20:11:17;10.38;;;8.73;;
9506;SDS011;4791;47.528;9.372;2023-02-15T20:26:24;10.00;;;8.80;;
9506;SDS011;4791;47.528;9.372;2023-02-15T20:41:28;8.75;;;7.85;;
9506;SDS011;4791;47.528;9.372;2023-02-15T20:56:34;10.77;;;9.02;;
9506;SDS011;4791;47.528;9.372;2023-02-15T21:11:40;11.40;;;7.90;;
9506;SDS011;4791;47.528;9.372;2023-02-15T21:26:43;10.20;;;9.20;;
9506;SDS011;4791;47.528;9.372;2023-02-15T21:41:48;8.55;;;7.65;;
9506;SDS011;4791;47.528;9.372;2023-02-15T21:57:12;7.82;;;7.03;;
9506;SDS011;4791;47.528;9.372;2023-02-15T22:12:14;8.27;;;7.40;;
9506;SDS011;4791;47.528;9.372;2023-02-15T22:27:22;8.18;;;7.18;;
9506;SDS011;4791;47.528;9.372;2023-02-15T22:42:26;7.70;;;6.90;;
9506;SDS011;4791;47.528;9.372;2023-02-15T22:57:28;9.23;;;7.67;;
9506;SDS011;4791;47.528;9.372;2023-02-15T23:12:31;8.27;;;7.40;;
9506;SDS011;4791;47.528;9.372;2023-02-15T23:27:54;8.32;;;7.22;;
9506;SDS011;4791;47.528;9.372;2023-02-15T23:43:00;7.95;;;7.15;;
9506;SDS011;4791;47.528;9.372;2023-02-15T23:58:01;9.55;;;8.25;;
